Time;durP1;ratioP1;P1;durP2;ratioP2;P2;SDS_P1;SDS_P2;PMS_P1;PMS_P2;Temp;Humidity;BMP_temperature;BMP_pressure;BME280_temperature;BME280_humidity;BME280_pressure;Samples;Min_cycle;Max_cycle;Signal;HPM_P1;HPM_P2
2023/12/27 00:01:23;;;;;;;0.50;0.50;;;;;;;21.19;29.51;101094.75;4454240;28;20497;-53
2023/12/27 00:03:34;;;;;;;0.95;0.60;;;;;;;21.20;29.66;101093.53;4470571;28;20506;-50
2023/12/27 00:05:44;;;;;;;0.50;0.50;;;;;;;21.19;28.99;101097.63;4470389;28;20522;-50
2023/12/27 00:07:54;;;;;;;0.98;0.70;;;;;;;21.20;29.32;101110.78;4483695;28;20070;-49
2023/12/27 00:10:05;;;;;;;1.05;0.95;;;;;;;21.20;29.08;101107.91;4468709;28;20066;-51
2023/12/27 00:12:16;;;;;;;0.98;0.90;;;;;;;21.20;29.20;101115.69;4470315;28;20038;-50
2023/12/27 00:14:26;;;;;;;0.85;0.73;;;;;;;21.20;29.05;101110.78;4470411;28;20046;-51
2023/12/27 00:16:37;;;;;;;0.70;0.60;;;;;;;21.19;29.14;101120.59;4470117;28;20042;-51
2023/12/27 00:18:47;;;;;;;1.30;0.75;;;;;;;21.19;28.77;101114.84;4470083;28;20039;-51
2023/12/27 00:20:58;;;;;;;1.42;0.82;;;;;;;21.20;29.07;101116.50;4470457;28;20046;-49
2023/12/27 00:23:08;;;;;;;1.45;0.70;;;;;;;21.19;28.71;101120.59;4470427;28;20126;-51
2023/12/27 00:25:18;;;;;;;0.68;0.50;;;;;;;21.19;28.73;101122.59;4469862;28;20110;-50
2023/12/27 00:27:29;;;;;;;0.60;0.47;;;;;;;21.18;28.93;101130.41;4470054;28;20046;-49
2023/12/27 00:29:39;;;;;;;1.50;0.47;;;;;;;21.18;28.66;101118.94;4468752;28;20039;-51
2023/12/27 00:31:50;;;;;;;1.23;0.55;;;;;;;21.19;28.48;101119.75;4470263;28;20035;-50
2023/12/27 00:34:00;;;;;;;0.50;0.43;;;;;;;21.18;28.78;101118.06;4470309;28;20055;-51
2023/12/27 00:36:11;;;;;;;0.60;0.43;;;;;;;21.18;28.55;101121.78;4484469;28;20034;-50
2023/12/27 00:38:21;;;;;;;0.82;0.40;;;;;;;21.17;28.55;101117.22;4468384;28;20056;-51
2023/12/27 00:40:32;;;;;;;0.80;0.38;;;;;;;21.16;28.67;101121.31;4468882;28;20130;-50
2023/12/27 00:42:42;;;;;;;1.00;0.40;;;;;;;21.17;28.24;101128.72;4470093;28;20027;-50
2023/12/27 00:44:53;;;;;;;0.57;0.30;;;;;;;21.17;28.56;101128.72;4469707;28;20116;-49
2023/12/27 00:47:04;;;;;;;0.73;0.45;;;;;;;21.17;28.06;101133.63;4469267;28;20035;-49
2023/12/27 00:49:15;;;;;;;0.68;0.43;;;;;;;21.17;28.29;101134.44;4469952;28;20487;-50
2023/12/27 00:51:26;;;;;;;1.05;0.52;;;;;;;21.17;28.87;101128.72;4454316;28;20926;-50
2023/12/27 00:53:36;;;;;;;0.88;0.60;;;;;;;21.17;28.53;101134.44;4470153;28;20039;-51
2023/12/27 00:55:46;;;;;;;0.93;0.40;;;;;;;21.15;29.08;101134.00;4470186;28;20504;-50
2023/12/27 00:57:57;;;;;;;0.90;0.52;;;;;;;21.15;28.77;101136.88;4469576;28;20369;-50
2023/12/27 01:00:08;;;;;;;1.25;0.50;;;;;;;21.16;28.67;101126.19;4469596;28;20107;-50
2023/12/27 01:02:19;;;;;;;0.70;0.40;;;;;;;21.15;28.28;101136.88;4484401;28;20041;-50
2023/12/27 01:04:32;;;;;;;1.23;0.40;;;;;;;21.16;28.59;101127.06;4469844;28;20027;-50
2023/12/27 01:06:43;;;;;;;0.68;0.50;;;;;;;21.15;28.64;101124.53;4465592;28;20046;-50
2023/12/27 01:08:53;;;;;;;1.73;0.68;;;;;;;21.15;28.02;101131.13;4469584;28;20045;-50
2023/12/27 01:11:04;;;;;;;0.90;0.60;;;;;;;21.15;27.96;101119.66;4468167;28;20559;-49
2023/12/27 01:13:15;;;;;;;0.82;0.70;;;;;;;21.15;28.53;101111.03;4469491;28;20042;-51
2023/12/27 01:15:25;;;;;;;0.63;0.50;;;;;;;21.15;28.15;101113.91;4468333;28;20042;-51
2023/12/27 01:17:36;;;;;;;0.90;0.50;;;;;;;21.16;28.54;101114.72;4469350;28;20034;-50
2023/12/27 01:19:46;;;;;;;1.05;0.50;;;;;;;21.15;28.70;101113.06;4471403;28;20126;-49
2023/12/27 01:21:57;;;;;;;0.85;0.60;;;;;;;21.14;28.40;101123.69;4471219;28;20030;-51
2023/12/27 01:24:07;;;;;;;1.10;0.50;;;;;;;21.13;28.75;101122.03;4472589;28;20042;-50
2023/12/27 01:26:18;;;;;;;1.00;0.50;;;;;;;21.14;28.93;101129.44;4472610;28;20038;-52
2023/12/27 01:28:28;;;;;;;0.80;0.60;;;;;;;21.11;28.88;101135.88;4471713;28;21008;-52
2023/12/27 01:30:38;;;;;;;0.63;0.50;;;;;;;21.14;29.04;101132.31;4487189;28;20982;-50
2023/12/27 01:32:49;;;;;;;0.60;0.60;;;;;;;21.14;29.12;101131.44;4471130;28;20479;-51
2023/12/27 01:35:00;;;;;;;0.65;0.60;;;;;;;21.14;29.30;101128.59;4472484;28;20823;-51
2023/12/27 01:37:11;;;;;;;0.95;0.50;;;;;;;21.13;28.89;101119.16;4471948;28;20057;-49
2023/12/27 01:39:22;;;;;;;1.20;0.90;;;;;;;21.13;29.08;101116.28;4472237;28;20506;-49
2023/12/27 01:41:33;;;;;;;1.15;0.73;;;;;;;21.13;28.60;101126.91;4473043;28;20030;-53
2023/12/27 01:43:43;;;;;;;0.70;0.63;;;;;;;21.12;28.69;101131.81;4472361;28;20522;-51
2023/12/27 01:45:54;;;;;;;0.50;0.50;;;;;;;21.12;28.73;101131.81;4472546;28;20034;-49
2023/12/27 01:48:04;;;;;;;1.13;0.80;;;;;;;21.13;28.11;101136.38;4473148;28;20031;-51
2023/12/27 01:50:15;;;;;;;1.75;0.60;;;;;;;21.12;28.27;101134.69;4473057;28;20089;-50
2023/12/27 01:52:26;;;;;;;0.75;0.60;;;;;;;21.13;28.71;101133.50;4470421;28;20042;-51
2023/12/27 01:54:37;;;;;;;1.02;0.80;;;;;;;21.12;28.40;101126.06;4469172;28;20034;-51
2023/12/27 01:56:50;;;;;;;1.52;0.60;;;;;;;21.13;28.75;101127.78;4452722;28;20039;-49
2023/12/27 01:59:00;;;;;;;0.93;0.50;;;;;;;21.11;28.74;101115.81;4471950;28;20057;-52
2023/12/27 02:01:10;;;;;;;1.00;0.55;;;;;;;21.12;28.97;101113.78;4471705;28;20071;-50
2023/12/27 02:03:21;;;;;;;0.80;0.68;;;;;;;21.12;28.91;101119.50;4471395;28;20415;-50
2023/12/27 02:05:35;;;;;;;0.82;0.52;;;;;;;21.11;28.41;101112.94;4472051;28;20110;-49
2023/12/27 02:07:46;;;;;;;1.40;0.60;;;;;;;21.12;28.62;101113.78;4470126;28;20105;-49
2023/12/27 02:09:57;;;;;;;1.25;0.70;;;;;;;21.11;28.47;101112.09;4470804;28;20035;-52
2023/12/27 02:12:08;;;;;;;1.25;0.80;;;;;;;21.10;28.56;101111.28;4470305;28;20026;-50
2023/12/27 02:14:18;;;;;;;0.70;0.60;;;;;;;21.10;28.50;101105.53;4486337;28;20479;-49
2023/12/27 02:16:29;;;;;;;0.90;0.75;;;;;;;21.11;28.56;101106.34;4486730;28;20034;-50
2023/12/27 02:18:40;;;;;;;1.05;0.95;;;;;;;21.10;28.83;101102.66;4471843;28;20460;-49
2023/12/27 02:20:52;;;;;;;1.08;0.77;;;;;;;21.10;28.74;101104.69;4486413;28;20125;-49
2023/12/27 02:23:06;;;;;;;1.10;0.77;;;;;;;21.10;28.65;101102.66;4486639;28;20042;-50
2023/12/27 02:25:17;;;;;;;0.85;0.70;;;;;;;21.10;28.87;101108.41;4462195;28;20030;-50
2023/12/27 02:27:28;;;;;;;0.70;0.60;;;;;;;21.09;28.78;101109.56;4486175;28;20034;-49
2023/12/27 02:29:38;;;;;;;0.80;0.68;;;;;;;21.10;28.69;101122.75;4471595;28;20783;-49
2023/12/27 02:31:49;;;;;;;1.25;0.70;;;;;;;21.10;28.28;101116.16;4471015;28;20046;-51
2023/12/27 02:33:59;;;;;;;0.65;0.60;;;;;;;21.10;28.05;101117.00;4470058;28;20039;-50
2023/12/27 02:36:10;;;;;;;1.00;0.70;;;;;;;21.10;28.04;101122.75;4470741;28;20074;-53
2023/12/27 02:38:21;;;;;;;0.80;0.77;;;;;;;21.09;27.92;101115.31;4472134;28;20113;-50
2023/12/27 02:40:31;;;;;;;0.82;0.60;;;;;;;21.08;27.74;101119.38;4470980;28;20454;-49
2023/12/27 02:42:42;;;;;;;1.38;0.70;;;;;;;21.08;27.79;101119.38;4471547;28;20487;-50
2023/12/27 02:44:52;;;;;;;1.35;0.73;;;;;;;21.09;27.47;101112.44;4470567;28;20038;-50
2023/12/27 02:47:02;;;;;;;1.00;0.80;;;;;;;21.07;27.42;101109.13;4472268;28;20039;-49
2023/12/27 02:49:13;;;;;;;1.00;0.90;;;;;;;21.08;27.20;101107.91;4472689;28;20047;-49
2023/12/27 02:51:23;;;;;;;0.98;0.80;;;;;;;21.08;27.79;101109.94;4471903;28;20065;-49
2023/12/27 02:53:34;;;;;;;1.30;0.90;;;;;;;21.07;28.06;101091.91;4470957;28;20174;-49
2023/12/27 02:55:44;;;;;;;1.38;0.70;;;;;;;21.07;27.94;101097.63;4470697;28;20026;-50
2023/12/27 02:57:57;;;;;;;1.05;0.70;;;;;;;21.05;28.48;101102.88;4471102;28;20039;-49
2023/12/27 03:00:08;;;;;;;0.93;0.63;;;;;;;21.07;28.29;101105.41;4471510;28;20668;-51
2023/12/27 03:02:18;;;;;;;1.20;0.85;;;;;;;21.06;28.52;101098.81;4471373;28;20030;-50
2023/12/27 03:04:29;;;;;;;1.02;0.70;;;;;;;21.06;28.21;101093.06;4471235;28;20030;-51
2023/12/27 03:06:39;;;;;;;1.10;0.80;;;;;;;21.07;28.55;101094.75;4471060;28;20035;-51
2023/12/27 03:08:52;;;;;;;1.30;0.95;;;;;;;21.08;28.50;101092.72;4470969;28;20025;-49
2023/12/27 03:11:03;;;;;;;0.80;0.70;;;;;;;21.07;28.97;101094.75;4471091;28;20038;-50
2023/12/27 03:13:13;;;;;;;1.02;0.77;;;;;;;21.07;28.65;101086.16;4471261;28;20046;-50
2023/12/27 03:15:23;;;;;;;0.70;0.68;;;;;;;21.07;28.48;101088.19;4471240;28;20062;-50
2023/12/27 03:17:34;;;;;;;1.67;0.65;;;;;;;21.07;28.35;101088.19;4485818;28;20089;-49
2023/12/27 03:19:45;;;;;;;0.80;0.60;;;;;;;21.06;28.60;101078.72;4471318;28;20042;-49
2023/12/27 03:21:55;;;;;;;1.30;0.80;;;;;;;21.06;28.80;101081.59;4470231;28;20150;-50
2023/12/27 03:24:05;;;;;;;1.35;0.70;;;;;;;21.07;28.90;101082.44;4485426;28;20058;-52
2023/12/27 03:26:16;;;;;;;0.93;0.70;;;;;;;21.06;28.91;101078.72;4471201;28;20045;-50
2023/12/27 03:28:26;;;;;;;1.20;0.80;;;;;;;21.06;29.10;101075.84;4469016;28;20821;-50
2023/12/27 03:30:36;;;;;;;1.17;0.70;;;;;;;21.05;28.91;101074.19;4453182;28;20511;-51
2023/12/27 03:32:47;;;;;;;1.25;0.80;;;;;;;21.06;28.57;101063.56;4470700;28;20054;-52
2023/12/27 03:34:58;;;;;;;0.85;0.60;;;;;;;21.05;29.19;101056.13;4470703;28;20130;-50
2023/12/27 03:37:08;;;;;;;0.90;0.70;;;;;;;21.05;29.43;101059.84;4459880;28;20483;-49
2023/12/27 03:39:18;;;;;;;1.55;0.77;;;;;;;21.05;29.26;101050.38;4470402;28;20038;-49
2023/12/27 03:41:29;;;;;;;1.08;0.80;;;;;;;21.05;29.31;101042.63;4469407;28;20109;-50
2023/12/27 03:43:39;;;;;;;1.15;0.82;;;;;;;21.06;29.06;101035.66;4470722;28;20022;-51
2023/12/27 03:45:53;;;;;;;1.45;0.80;;;;;;;21.05;29.37;101033.16;4470722;28;20043;-50
2023/12/27 03:48:04;;;;;;;1.20;0.73;;;;;;;21.03;29.25;101030.66;4469951;28;20114;-50
2023/12/27 03:50:14;;;;;;;1.02;0.75;;;;;;;21.03;28.86;101024.91;4469260;28;20125;-49
2023/12/27 03:52:25;;;;;;;2.38;0.90;;;;;;;21.04;29.22;101026.56;4470513;28;20027;-50
2023/12/27 03:54:37;;;;;;;1.35;0.88;;;;;;;21.04;28.90;101032.31;4469640;28;20508;-50
2023/12/27 03:56:48;;;;;;;0.90;0.80;;;;;;;21.05;29.31;101021.69;4484988;28;20034;-50
2023/12/27 03:58:58;;;;;;;1.45;1.00;;;;;;;21.04;29.23;101032.31;4469731;28;20034;-49
2023/12/27 04:01:09;;;;;;;1.08;0.90;;;;;;;21.03;29.25;101036.38;4469729;28;20069;-50
2023/12/27 04:03:19;;;;;;;0.88;0.80;;;;;;;21.04;29.52;101043.78;4485096;28;20424;-49
2023/12/27 04:05:30;;;;;;;1.00;0.90;;;;;;;21.03;29.21;101036.38;4470692;28;20117;-49
2023/12/27 04:07:40;;;;;;;0.77;0.77;;;;;;;21.03;29.12;101036.38;4470036;28;20114;-49
2023/12/27 04:09:51;;;;;;;0.98;0.70;;;;;;;21.04;28.99;101052.41;4470407;28;20049;-49
2023/12/27 04:12:01;;;;;;;1.48;0.70;;;;;;;21.03;28.81;101047.88;4470485;28;20031;-49
2023/12/27 04:14:15;;;;;;;0.82;0.70;;;;;;;21.02;29.08;101046.22;4468717;28;20389;-50
2023/12/27 04:16:26;;;;;;;1.17;0.80;;;;;;;21.03;28.66;101049.91;4469918;28;20081;-49
2023/12/27 04:18:37;;;;;;;0.80;0.70;;;;;;;21.04;28.69;101055.28;4468325;28;20563;-51
2023/12/27 04:20:47;;;;;;;1.30;0.80;;;;;;;21.02;28.84;101054.81;4469457;28;20495;-51
2023/12/27 04:22:58;;;;;;;0.70;0.60;;;;;;;21.03;28.85;101056.47;4468765;28;20050;-50
2023/12/27 04:25:08;;;;;;;0.75;0.70;;;;;;;21.02;28.55;101057.69;4470228;28;20944;-51
2023/12/27 04:27:19;;;;;;;1.33;1.00;;;;;;;21.01;29.07;101050.25;4470079;28;20038;-49
2023/12/27 04:29:29;;;;;;;1.10;0.85;;;;;;;21.02;28.66;101045.34;4485067;28;20033;-50
2023/12/27 04:31:39;;;;;;;0.73;0.73;;;;;;;21.01;28.79;101043.69;4470760;28;20045;-49
2023/12/27 04:33:50;;;;;;;1.00;0.80;;;;;;;21.00;28.51;101034.25;4470228;28;20118;-49
2023/12/27 04:36:00;;;;;;;1.10;0.70;;;;;;;21.01;28.57;101033.03;4469749;28;20093;-50
2023/12/27 04:38:13;;;;;;;1.33;0.70;;;;;;;21.01;28.68;101037.97;4469652;28;20039;-50
2023/12/27 04:40:24;;;;;;;1.27;0.90;;;;;;;21.02;28.62;101031.84;4484924;28;20034;-49
2023/12/27 04:42:34;;;;;;;1.42;0.90;;;;;;;21.01;29.29;101033.03;4469447;28;20546;-50
2023/12/27 04:44:44;;;;;;;1.13;0.80;;;;;;;21.01;29.17;101033.03;4470279;28;20039;-49
2023/12/27 04:46:55;;;;;;;1.05;0.80;;;;;;;21.01;28.85;101027.28;4483984;28;25212;-51
2023/12/27 04:49:05;;;;;;;1.52;1.00;;;;;;;21.01;28.81;101030.16;4469945;28;20046;-49
2023/12/27 04:51:16;;;;;;;0.93;0.80;;;;;;;21.02;28.98;101036.75;4470377;28;20125;-49
2023/12/27 04:53:26;;;;;;;1.25;0.73;;;;;;;21.01;28.99;101049.44;4471639;28;20082;-50
2023/12/27 04:55:36;;;;;;;1.38;0.90;;;;;;;20.99;28.90;101048.94;4473009;28;20066;-50
2023/12/27 04:57:47;;;;;;;1.13;0.80;;;;;;;21.00;29.09;101048.59;4473017;28;20038;-50
2023/12/27 04:59:57;;;;;;;1.10;0.75;;;;;;;21.00;28.71;101048.59;4471348;28;20062;-51
2023/12/27 05:02:08;;;;;;;1.55;0.70;;;;;;;21.00;28.52;101051.47;4473106;28;20035;-50
2023/12/27 05:04:18;;;;;;;1.35;0.80;;;;;;;21.01;28.71;101052.31;4472573;28;20176;-50
2023/12/27 05:06:29;;;;;;;1.13;0.82;;;;;;;21.01;28.39;101047.38;4472328;28;20038;-50
2023/12/27 05:08:41;;;;;;;1.27;1.00;;;;;;;20.99;28.55;101041.19;4470848;28;20686;-49
2023/12/27 05:10:51;;;;;;;1.45;0.90;;;;;;;21.00;29.01;101039.97;4472810;28;20035;-50
2023/12/27 05:13:02;;;;;;;1.92;1.00;;;;;;;20.99;29.18;101035.44;4487588;28;20078;-51
2023/12/27 05:15:12;;;;;;;1.52;0.80;;;;;;;20.99;28.90;101029.72;4472929;28;20123;-50
2023/12/27 05:17:23;;;;;;;1.58;0.90;;;;;;;21.00;29.26;101036.25;4472449;28;20093;-49
2023/12/27 05:19:37;;;;;;;1.25;0.73;;;;;;;21.00;28.79;101042.00;4472749;28;20078;-50
2023/12/27 05:21:48;;;;;;;1.20;0.80;;;;;;;20.99;28.92;101046.09;4472507;28;20043;-49
2023/12/27 05:23:58;;;;;;;1.50;1.00;;;;;;;20.98;28.75;101042.38;4472820;28;20034;-49
2023/12/27 05:26:08;;;;;;;1.00;0.85;;;;;;;21.00;28.58;101044.88;4471833;28;28285;-49
2023/12/27 05:28:19;;;;;;;1.17;0.90;;;;;;;21.00;28.69;101044.88;4472410;28;20042;-50
2023/12/27 05:30:29;;;;;;;2.00;1.02;;;;;;;21.00;28.54;101047.75;4472330;28;25240;-51
2023/12/27 05:32:40;;;;;;;1.38;1.10;;;;;;;21.00;28.77;101047.75;4472147;28;24009;-49
2023/12/27 05:34:52;;;;;;;1.50;1.15;;;;;;;21.00;28.69;101042.84;4471275;28;20042;-49
2023/12/27 05:37:03;;;;;;;1.23;0.90;;;;;;;21.00;28.92;101042.84;4472298;28;20031;-50
2023/12/27 05:39:13;;;;;;;1.73;1.20;;;;;;;21.00;28.98;101037.13;4472435;28;20043;-51
2023/12/27 05:41:25;;;;;;;1.10;1.00;;;;;;;21.01;28.99;101044.50;4472186;28;20098;-50
2023/12/27 05:43:37;;;;;;;1.38;1.00;;;;;;;21.00;28.64;101039.13;4472210;28;20097;-49
2023/12/27 05:45:47;;;;;;;1.17;0.98;;;;;;;21.00;28.68;101036.25;4472388;28;20042;-50
2023/12/27 05:47:58;;;;;;;1.38;1.10;;;;;;;21.00;28.67;101037.13;4471819;28;20432;-51
2023/12/27 05:50:09;;;;;;;1.92;1.20;;;;;;;21.01;28.48;101032.22;4472296;28;20033;-49
2023/12/27 05:52:19;;;;;;;1.98;1.20;;;;;;;21.00;28.40;101034.25;4471940;28;20078;-49
2023/12/27 05:54:30;;;;;;;1.45;1.00;;;;;;;20.99;28.30;101026.84;4471708;28;23715;-50
2023/12/27 05:56:40;;;;;;;1.23;0.90;;;;;;;21.00;28.12;101031.38;4472099;28;20034;-50
2023/12/27 05:58:51;;;;;;;2.05;1.13;;;;;;;20.99;28.33;101023.97;4472097;28;20034;-49
2023/12/27 06:01:01;;;;;;;1.48;0.93;;;;;;;21.00;28.20;101025.63;4472435;28;20504;-49
2023/12/27 06:03:12;;;;;;;2.00;1.10;;;;;;;20.99;28.88;101023.97;4471703;28;20058;-49
2023/12/27 06:05:23;;;;;;;1.55;1.20;;;;;;;20.99;29.06;101017.38;4470719;28;20455;-50
2023/12/27 06:07:33;;;;;;;1.38;0.90;;;;;;;20.99;28.69;101017.38;4471837;28;20034;-50
2023/12/27 06:09:44;;;;;;;2.45;1.10;;;;;;;20.98;29.26;101010.81;4472026;28;20464;-50
2023/12/27 06:11:54;;;;;;;1.63;0.90;;;;;;;20.99;29.69;101003.03;4471896;28;20035;-49
2023/12/27 06:14:05;;;;;;;1.42;1.05;;;;;;;20.98;29.62;101002.19;4471808;28;20046;-49
2023/12/27 06:16:15;;;;;;;1.35;1.02;;;;;;;20.98;29.81;100993.59;4471775;28;20709;-52
2023/12/27 06:18:25;;;;;;;1.75;1.10;;;;;;;20.99;30.07;100977.22;4486243;28;20121;-50
2023/12/27 06:20:36;;;;;;;1.63;1.05;;;;;;;20.99;29.76;100991.56;4471961;28;20035;-49
2023/12/27 06:22:46;;;;;;;2.10;1.05;;;;;;;20.98;29.17;100993.59;4471923;28;20097;-49
2023/12/27 06:24:57;;;;;;;1.33;1.05;;;;;;;20.98;29.37;100995.63;4471585;28;20061;-49
2023/12/27 06:27:07;;;;;;;2.55;1.10;;;;;;;20.98;29.09;100992.78;4471711;28;20049;-49
2023/12/27 06:29:18;;;;;;;1.63;1.00;;;;;;;20.97;28.77;100991.91;4471766;28;20109;-52
2023/12/27 06:31:29;;;;;;;1.70;1.08;;;;;;;20.97;28.78;100980.44;4471549;28;21269;-50
2023/12/27 06:33:39;;;;;;;2.22;1.23;;;;;;;20.97;28.80;100983.31;4471578;28;20053;-50
2023/12/27 06:35:50;;;;;;;1.70;1.13;;;;;;;20.98;29.11;100987.84;4471816;28;20412;-50
2023/12/27 06:38:00;;;;;;;2.05;1.30;;;;;;;20.98;28.91;100987.84;4471397;28;20030;-50
2023/12/27 06:40:11;;;;;;;1.65;1.13;;;;;;;20.98;29.10;100981.28;4471406;28;20101;-51
2023/12/27 06:42:21;;;;;;;1.83;1.20;;;;;;;20.99;29.33;100988.69;4471401;28;20023;-49
2023/12/27 06:44:31;;;;;;;2.08;1.50;;;;;;;20.99;29.04;100988.69;4471439;28;20045;-50
2023/12/27 06:46:42;;;;;;;1.40;1.20;;;;;;;20.99;29.22;100988.69;4470917;28;27737;-50
2023/12/27 06:48:52;;;;;;;2.33;1.20;;;;;;;20.99;29.31;100986.66;4471496;28;20065;-49
2023/12/27 06:51:05;;;;;;;1.33;1.08;;;;;;;20.98;29.42;100981.28;4471572;28;20035;-49
2023/12/27 06:53:15;;;;;;;2.13;1.13;;;;;;;20.97;29.53;100980.44;4471191;28;20055;-49
2023/12/27 06:55:26;;;;;;;2.25;1.00;;;;;;;20.97;29.51;100986.19;4471500;28;20023;-50
2023/12/27 06:57:36;;;;;;;1.77;1.17;;;;;;;20.97;29.41;100968.97;4471031;28;20039;-49
2023/12/27 06:59:46;;;;;;;1.23;1.08;;;;;;;20.97;29.45;100971.00;4471334;28;20026;-51
2023/12/27 07:01:57;;;;;;;1.75;1.15;;;;;;;20.96;29.53;100973.03;4471324;28;20031;-50
2023/12/27 07:04:07;;;;;;;1.85;1.30;;;;;;;20.96;30.03;100964.44;4471808;28;20487;-49
2023/12/27 07:06:18;;;;;;;2.30;1.50;;;;;;;20.93;30.00;100959.34;4472008;28;20042;-49
2023/12/27 07:08:30;;;;;;;1.67;1.10;;;;;;;20.97;29.76;100963.22;4471893;28;20047;-50
2023/12/27 07:10:40;;;;;;;1.38;1.10;;;;;;;20.97;29.93;100957.47;4471869;28;20046;-49
2023/12/27 07:12:50;;;;;;;1.10;0.98;;;;;;;20.98;30.28;100959.16;4471090;28;32106;-49
2023/12/27 07:15:01;;;;;;;1.38;1.10;;;;;;;20.99;29.85;100966.56;4471864;28;20635;-48
2023/12/27 07:17:11;;;;;;;1.98;1.10;;;;;;;20.98;29.47;100967.75;4471374;28;20081;-52
2023/12/27 07:19:22;;;;;;;1.95;1.20;;;;;;;20.98;30.02;100953.41;4471337;28;20023;-49
2023/12/27 07:21:32;;;;;;;1.70;1.10;;;;;;;20.99;29.42;100957.13;4471806;28;20622;-50
2023/12/27 07:23:42;;;;;;;1.05;0.90;;;;;;;20.98;30.13;100962.00;4471740;28;20138;-49
2023/12/27 07:25:53;;;;;;;1.17;0.98;;;;;;;20.98;29.47;100955.47;4471467;28;20038;-49
2023/12/27 07:28:03;;;;;;;1.50;1.25;;;;;;;20.99;30.08;100952.22;4471278;28;24134;-51
2023/12/27 07:30:14;;;;;;;1.15;1.05;;;;;;;20.99;29.87;100949.34;4471481;28;20027;-49
2023/12/27 07:32:24;;;;;;;2.28;1.27;;;;;;;20.99;29.88;100955.09;4471559;28;20502;-49
2023/12/27 07:34:35;;;;;;;2.10;1.40;;;;;;;21.00;30.01;100951.03;4471231;28;20078;-49
2023/12/27 07:36:45;;;;;;;2.50;1.13;;;;;;;21.00;29.80;100945.28;4471224;28;20027;-50
2023/12/27 07:38:56;;;;;;;1.20;1.10;;;;;;;21.01;29.85;100940.38;4471398;28;20039;-48
2023/12/27 07:41:06;;;;;;;1.73;1.00;;;;;;;21.00;29.85;100928.06;4471460;28;20061;-48
2023/12/27 07:43:16;;;;;;;1.65;1.10;;;;;;;21.00;30.29;100925.19;4471021;28;23762;-49
2023/12/27 07:45:27;;;;;;;2.13;1.10;;;;;;;21.01;30.09;100923.97;4469962;28;20117;-49
2023/12/27 07:47:37;;;;;;;1.40;1.10;;;;;;;21.00;30.24;100913.72;4471189;28;20045;-50
2023/12/27 07:49:48;;;;;;;1.20;1.10;;;;;;;21.02;29.90;100905.59;4471430;28;20043;-48
2023/12/27 07:51:58;;;;;;;2.17;1.23;;;;;;;21.01;30.57;100898.16;4471129;28;20403;-48
2023/12/27 07:54:08;;;;;;;1.70;1.38;;;;;;;21.01;30.31;100912.50;4471235;28;20077;-52
2023/12/27 07:56:19;;;;;;;1.88;1.13;;;;;;;21.00;30.49;100905.09;4471624;28;20066;-51
2023/12/27 07:58:29;;;;;;;1.48;1.23;;;;;;;21.00;30.17;100905.09;4470933;28;20046;-49
2023/12/27 08:00:40;;;;;;;2.35;1.13;;;;;;;21.00;30.34;100899.38;4471565;28;20027;-48
2023/12/27 08:02:50;;;;;;;1.80;1.20;;;;;;;21.00;30.24;100899.38;4471172;28;20046;-49
2023/12/27 08:05:02;;;;;;;1.90;1.20;;;;;;;21.01;30.24;100900.22;4471420;28;20038;-48
2023/12/27 08:07:16;;;;;;;1.85;1.17;;;;;;;21.01;30.18;100898.16;4470852;28;20073;-49
2023/12/27 08:09:26;;;;;;;1.70;1.02;;;;;;;21.03;30.18;100898.63;4470875;28;20037;-48
2023/12/27 08:11:37;;;;;;;1.67;1.20;;;;;;;21.04;30.10;100888.00;4470873;28;20045;-52
2023/12/27 08:13:47;;;;;;;1.90;1.30;;;;;;;21.02;30.14;100879.75;4471130;28;20046;-50
2023/12/27 08:15:58;;;;;;;1.73;1.23;;;;;;;21.04;30.37;100876.53;4471108;28;20042;-49
2023/12/27 08:18:08;;;;;;;2.38;1.20;;;;;;;21.03;30.13;100880.56;4470654;28;20486;-48
2023/12/27 08:20:19;;;;;;;2.03;1.10;;;;;;;21.03;30.55;100869.94;4470174;28;21120;-49
2023/12/27 08:22:30;;;;;;;2.08;1.23;;;;;;;21.03;30.49;100869.94;4470895;28;20540;-49
2023/12/27 08:24:41;;;;;;;1.73;1.30;;;;;;;21.03;30.29;100858.47;4471030;28;20546;-49
2023/12/27 08:26:51;;;;;;;1.42;1.20;;;;;;;21.05;30.78;100852.34;4470857;28;20041;-53
2023/12/27 08:29:02;;;;;;;2.45;1.17;;;;;;;21.03;30.54;100855.59;4469998;28;20050;-51
2023/12/27 08:31:13;;;;;;;2.40;1.20;;;;;;;21.02;30.79;100845.31;4470654;28;20121;-50
2023/12/27 08:33:23;;;;;;;1.20;1.00;;;;;;;21.03;30.60;100832.63;4470970;28;20117;-52
2023/12/27 08:35:35;;;;;;;1.75;1.20;;;;;;;21.05;30.69;100840.88;4445060;28;20035;-52
2023/12/27 08:37:45;;;;;;;1.83;1.13;;;;;;;21.06;31.22;100836.81;4485672;28;20042;-49
2023/12/27 08:39:56;;;;;;;2.90;1.33;;;;;;;21.05;31.28;100830.25;4471034;28;20031;-50
2023/12/27 08:42:06;;;;;;;1.70;1.25;;;;;;;21.06;31.40;100846.25;4470614;28;20067;-50
2023/12/27 08:44:17;;;;;;;2.08;1.30;;;;;;;21.06;30.92;100840.50;4470447;28;20066;-49
2023/12/27 08:46:27;;;;;;;1.80;1.10;;;;;;;21.06;31.21;100840.50;4470577;28;20424;-51
2023/12/27 08:48:37;;;;;;;2.10;1.23;;;;;;;21.06;31.14;100846.25;4470175;28;20035;-49
2023/12/27 08:50:48;;;;;;;2.15;1.40;;;;;;;21.04;30.79;100842.09;4470389;28;20097;-52
2023/12/27 08:52:59;;;;;;;2.17;1.20;;;;;;;21.05;31.47;100844.59;4470657;28;20039;-50
2023/12/27 08:55:10;;;;;;;2.58;1.10;;;;;;;21.04;31.21;100845.75;4470520;28;20062;-50
2023/12/27 08:57:21;;;;;;;2.13;1.20;;;;;;;21.04;31.39;100842.91;4470200;28;20026;-53
2023/12/27 08:59:31;;;;;;;2.13;1.30;;;;;;;21.07;31.44;100842.19;4470320;28;20050;-49
2023/12/27 09:01:41;;;;;;;2.08;1.30;;;;;;;21.07;31.06;100830.72;4470265;28;20483;-49
2023/12/27 09:03:52;;;;;;;2.85;1.30;;;;;;;21.07;31.45;100835.59;4468686;28;20042;-49
2023/12/27 09:06:02;;;;;;;1.67;1.20;;;;;;;21.08;31.48;100838.13;4470115;28;25690;-49
2023/12/27 09:08:13;;;;;;;1.17;1.08;;;;;;;21.08;32.01;100835.25;4470046;28;20047;-49
2023/12/27 09:10:23;;;;;;;1.75;1.13;;;;;;;21.09;31.86;100839.78;4470126;28;24903;-50
2023/12/27 09:12:33;;;;;;;2.22;1.25;;;;;;;21.08;31.55;100831.53;4470174;28;20050;-50
2023/12/27 09:14:44;;;;;;;1.95;1.20;;;;;;;21.09;31.21;100841.81;4470452;28;20031;-49
2023/12/27 09:16:54;;;;;;;1.77;1.30;;;;;;;21.09;31.67;100839.78;4470001;28;27125;-50
2023/12/27 09:19:04;;;;;;;1.63;1.10;;;;;;;21.10;31.86;100838.59;4469932;28;20031;-53
2023/12/27 09:21:15;;;;;;;2.92;1.30;;;;;;;21.09;31.45;100845.50;4470392;28;20070;-50
2023/12/27 09:23:25;;;;;;;2.75;1.75;;;;;;;21.10;31.45;100837.75;4470340;28;20038;-51
2023/12/27 09:25:36;;;;;;;4.07;2.05;;;;;;;21.08;31.46;100832.38;4470015;28;20026;-49
2023/12/27 09:27:47;;;;;;;3.60;1.70;;;;;;;21.11;31.55;100830.78;4470171;28;20117;-50
2023/12/27 09:29:57;;;;;;;2.67;1.50;;;;;;;21.09;31.84;100824.59;4469962;28;20084;-50
2023/12/27 09:32:07;;;;;;;2.25;1.50;;;;;;;21.10;31.83;100829.13;4470224;28;20031;-49
2023/12/27 09:34:18;;;;;;;2.17;1.40;;;;;;;21.11;32.07;100822.19;4469959;28;20051;-50
2023/12/27 09:36:28;;;;;;;2.45;1.50;;;;;;;21.11;31.85;100819.31;4470193;28;20142;-49
2023/12/27 09:38:39;;;;;;;2.45;1.42;;;;;;;21.11;32.06;100822.19;4470039;28;20452;-49
2023/12/27 09:40:49;;;;;;;2.38;1.33;;;;;;;21.10;31.68;100818.50;4468204;28;20023;-51
2023/12/27 09:43:03;;;;;;;1.73;1.02;;;;;;;21.11;31.62;100814.41;4473170;28;20633;-50
2023/12/27 09:45:18;;;;;;;2.67;1.30;;;;;;;21.11;32.02;100814.41;4472721;28;20035;-52
2023/12/27 09:47:30;;;;;;;1.48;0.88;;;;;;;21.13;31.88;100822.66;4471919;28;21022;-51
2023/12/27 09:49:40;;;;;;;1.80;1.00;;;;;;;21.12;31.75;100810.34;4472568;28;20102;-49
2023/12/27 09:51:52;;;;;;;2.15;1.02;;;;;;;21.11;32.21;100808.69;4472204;28;20094;-49
2023/12/27 09:54:03;;;;;;;1.73;1.00;;;;;;;21.13;32.42;100811.19;4472953;28;20054;-50
2023/12/27 09:56:15;;;;;;;1.50;1.00;;;;;;;21.12;32.53;100810.34;4472772;28;20050;-49
2023/12/27 09:58:29;;;;;;;1.17;0.98;;;;;;;21.10;32.20;100812.75;4472731;28;20027;-48
2023/12/27 10:00:43;;;;;;;2.35;1.00;;;;;;;21.12;32.28;100806.66;4472792;28;20148;-49
2023/12/27 10:02:58;;;;;;;1.70;0.98;;;;;;;21.12;32.70;100798.03;4472358;28;20089;-49
2023/12/27 10:05:19;;;;;;;1.25;0.85;;;;;;;21.12;32.94;100798.03;4472574;28;21406;-50
2023/12/27 10:07:30;;;;;;;1.77;1.00;;;;;;;21.11;32.75;100802.94;4472379;28;20118;-50